Time;durP1;ratioP1;P1;durP2;ratioP2;P2;SDS_P1;SDS_P2;PMS_P1;PMS_P2;Temp;Humidity;BMP_temperature;BMP_pressure;BME280_temperature;BME280_humidity;BME280_pressure;Samples;Min_cycle;Max_cycle;Signal;HPM_P1;HPM_P2
2023/09/07 00:00:05;;;;;;;6.07;3.22;;;;;;;14.93;100.00;96243.75;5051388;28;24980;-76
2023/09/07 00:02:31;;;;;;;6.10;3.90;;;;;;;14.95;100.00;96241.03;5051475;28;24514;-76
2023/09/07 00:04:58;;;;;;;6.20;4.13;;;;;;;14.95;100.00;96238.44;5051588;28;24712;-76
2023/09/07 00:07:24;;;;;;;7.68;3.83;;;;;;;14.86;100.00;96236.47;5052653;28;24428;-76
2023/09/07 00:09:51;;;;;;;3.72;3.20;;;;;;;14.73;100.00;96239.97;5056130;28;24454;-76
2023/09/07 00:12:19;;;;;;;5.97;4.03;;;;;;;14.76;100.00;96237.16;5055716;28;24454;-76
2023/09/07 00:14:46;;;;;;;4.20;2.90;;;;;;;14.70;100.00;96231.53;5055063;28;24517;-75
2023/09/07 00:17:13;;;;;;;5.32;3.67;;;;;;;14.71;100.00;96230.59;5055251;28;24481;-76
2023/09/07 00:19:39;;;;;;;4.35;3.30;;;;;;;14.82;100.00;96229.81;5055089;28;24477;-76
2023/09/07 00:22:06;;;;;;;5.80;3.60;;;;;;;14.84;100.00;96234.00;5054692;28;24428;-76
2023/09/07 00:24:32;;;;;;;4.60;3.40;;;;;;;14.84;100.00;96239.22;5055391;28;24970;-76
2023/09/07 00:26:59;;;;;;;5.68;3.40;;;;;;;14.79;100.00;96230.03;5054910;28;24426;-76
2023/09/07 00:29:27;;;;;;;5.40;3.67;;;;;;;14.65;100.00;96237.09;5055124;28;24459;-75
2023/09/07 00:31:53;;;;;;;7.63;3.77;;;;;;;14.69;100.00;96235.94;5054724;28;24447;-76
2023/09/07 00:34:20;;;;;;;6.63;4.00;;;;;;;14.74;100.00;96228.59;5054443;28;24418;-76
2023/09/07 00:36:46;;;;;;;6.28;4.80;;;;;;;14.68;100.00;96229.06;5054851;28;24422;-76
2023/09/07 00:39:13;;;;;;;10.20;5.82;;;;;;;14.58;100.00;96222.00;5055086;28;24421;-76
2023/09/07 00:41:39;;;;;;;11.68;5.93;;;;;;;14.43;100.00;96229.94;5054904;28;24816;-76
2023/09/07 00:44:06;;;;;;;8.30;5.53;;;;;;;14.43;100.00;96222.13;5054668;28;24515;-76
2023/09/07 00:46:34;;;;;;;5.63;4.40;;;;;;;14.46;100.00;96228.88;5054577;28;24419;-76
2023/09/07 00:49:01;;;;;;;9.30;4.53;;;;;;;14.48;100.00;96221.78;5054501;28;24948;-75
2023/09/07 00:51:28;;;;;;;8.80;4.18;;;;;;;14.46;100.00;96213.22;5054424;28;24478;-76
2023/09/07 00:53:54;;;;;;;4.80;3.58;;;;;;;14.41;100.00;96218.78;5054402;28;24423;-76
2023/09/07 00:56:21;;;;;;;4.03;3.28;;;;;;;14.38;100.00;96221.59;5054751;28;24434;-76
2023/09/07 00:58:48;;;;;;;7.00;3.40;;;;;;;14.33;100.00;96222.88;5054684;28;24987;-76
2023/09/07 01:01:15;;;;;;;5.28;3.50;;;;;;;14.35;100.00;96216.63;5054482;28;24958;-76
2023/09/07 01:03:43;;;;;;;4.47;3.38;;;;;;;14.42;100.00;96214.38;5053903;28;24415;-76
2023/09/07 01:06:14;;;;;;;5.65;3.05;;;;;;;14.49;100.00;96221.69;5054203;28;24423;-76
2023/09/07 01:08:45;;;;;;;6.97;3.43;;;;;;;14.53;100.00;96219.69;5054263;28;24469;-76
2023/09/07 01:11:15;;;;;;;4.43;3.35;;;;;;;14.51;100.00;96222.44;5054037;28;24474;-76
2023/09/07 01:13:42;;;;;;;4.10;3.45;;;;;;;14.60;100.00;96218.31;5053867;28;24481;-76
2023/09/07 01:16:10;;;;;;;3.55;2.85;;;;;;;14.56;100.00;96218.66;5054770;28;24427;-76
2023/09/07 01:18:38;;;;;;;4.55;3.05;;;;;;;14.57;100.00;96218.53;5054159;28;24422;-76
2023/09/07 01:21:08;;;;;;;4.28;2.90;;;;;;;14.51;100.00;96213.78;5053812;28;24423;-76
2023/09/07 01:23:40;;;;;;;3.42;2.78;;;;;;;14.42;100.00;96219.59;5053856;28;24969;-76
2023/09/07 01:26:08;;;;;;;3.53;2.88;;;;;;;14.18;100.00;96209.97;5054106;28;24419;-76
2023/09/07 01:28:36;;;;;;;4.45;2.90;;;;;;;14.10;100.00;96211.47;5053911;28;24469;-76
2023/09/07 01:31:03;;;;;;;3.45;3.15;;;;;;;14.03;100.00;96204.06;5054316;28;24415;-76
2023/09/07 01:33:30;;;;;;;3.10;2.80;;;;;;;14.04;100.00;96203.13;5053353;28;24421;-76
2023/09/07 01:35:56;;;;;;;4.88;3.05;;;;;;;14.01;100.00;96208.53;5048458;28;24426;-76
2023/09/07 01:38:23;;;;;;;5.28;3.22;;;;;;;13.97;100.00;96206.25;5014264;28;24440;-76
2023/09/07 01:40:51;;;;;;;5.60;3.40;;;;;;;14.00;100.00;96211.25;5014132;28;24954;-76
2023/09/07 01:43:18;;;;;;;6.00;3.50;;;;;;;14.03;100.00;96206.69;5013695;28;24424;-76
2023/09/07 01:45:44;;;;;;;4.07;3.50;;;;;;;14.09;100.00;96210.63;5014616;28;24429;-76
2023/09/07 01:48:12;;;;;;;4.30;3.03;;;;;;;14.13;100.00;96212.09;5014231;28;24435;-76
2023/09/07 01:50:39;;;;;;;4.55;2.90;;;;;;;14.18;100.00;96214.38;5014336;28;24412;-76
2023/09/07 01:53:05;;;;;;;5.03;3.33;;;;;;;14.17;100.00;96213.53;5014001;28;24814;-75
2023/09/07 01:55:32;;;;;;;4.05;3.25;;;;;;;14.13;100.00;96212.09;5013925;28;24424;-76
2023/09/07 01:58:00;;;;;;;5.80;3.45;;;;;;;14.08;100.00;96205.53;5014386;28;24873;-76
2023/09/07 02:00:27;;;;;;;5.18;3.47;;;;;;;14.02;100.00;96212.84;5014036;28;24432;-76
2023/09/07 02:02:53;;;;;;;3.63;3.10;;;;;;;13.99;100.00;96205.22;5013584;28;24420;-75
2023/09/07 02:05:21;;;;;;;5.28;3.60;;;;;;;13.91;100.00;96204.94;5014322;28;24413;-76
2023/09/07 02:07:49;;;;;;;5.30;3.10;;;;;;;13.91;100.00;96207.53;5014008;28;24495;-76
2023/09/07 02:10:16;;;;;;;3.60;3.08;;;;;;;13.89;100.00;96201.59;5014076;28;24829;-76
2023/09/07 02:12:42;;;;;;;4.53;3.27;;;;;;;13.89;100.00;96203.38;5013923;28;24467;-76
2023/09/07 02:15:10;;;;;;;5.00;3.28;;;;;;;13.85;100.00;96207.94;5013922;28;24424;-76
2023/09/07 02:17:37;;;;;;;8.13;3.88;;;;;;;13.83;100.00;96196.81;5014708;28;24416;-76
2023/09/07 02:20:08;;;;;;;4.75;3.30;;;;;;;13.86;100.00;96198.34;5014429;28;24415;-76
2023/09/07 02:22:34;;;;;;;4.55;3.60;;;;;;;13.78;100.00;96204.94;5013050;28;24964;-76
2023/09/07 02:25:01;;;;;;;4.80;4.30;;;;;;;13.75;100.00;96201.69;5013760;28;24415;-76
2023/09/07 02:27:28;;;;;;;4.40;3.42;;;;;;;13.70;100.00;96201.19;5014474;28;24976;-76
2023/09/07 02:29:54;;;;;;;4.55;3.80;;;;;;;13.66;100.00;96203.16;5014153;28;24427;-76
2023/09/07 02:32:22;;;;;;;4.97;3.75;;;;;;;13.71;100.00;96202.84;5013069;28;24822;-76
2023/09/07 02:34:48;;;;;;;4.72;3.92;;;;;;;13.68;100.00;96203.91;5013119;28;24424;-76
2023/09/07 02:37:16;;;;;;;4.78;4.00;;;;;;;13.69;100.00;96197.75;5013311;28;24427;-76
2023/09/07 02:39:42;;;;;;;6.67;4.03;;;;;;;13.62;100.00;96199.13;5013378;28;24923;-76
2023/09/07 02:42:09;;;;;;;4.22;3.45;;;;;;;13.64;100.00;96199.81;5013342;28;24416;-76
2023/09/07 02:44:36;;;;;;;3.47;3.15;;;;;;;13.67;100.00;96202.22;5013172;28;24416;-76
2023/09/07 02:47:02;;;;;;;12.23;3.50;;;;;;;13.67;100.00;96206.59;5013612;28;24483;-76
2023/09/07 02:49:31;;;;;;;4.50;3.47;;;;;;;13.66;100.00;96203.16;5013031;28;24425;-76
2023/09/07 02:51:57;;;;;;;3.65;3.33;;;;;;;13.66;100.00;96203.16;5012360;28;24985;-76
2023/09/07 02:54:24;;;;;;;7.25;3.53;;;;;;;13.63;100.00;96203.38;5012239;28;24432;-76
2023/09/07 02:56:51;;;;;;;3.50;3.17;;;;;;;13.57;100.00;96206.38;5013088;28;24420;-76
2023/09/07 02:59:17;;;;;;;4.55;2.95;;;;;;;13.48;100.00;96201.81;5012476;28;24966;-76
2023/09/07 03:01:44;;;;;;;3.20;2.90;;;;;;;13.35;100.00;96196.63;5012949;28;24435;-75
2023/09/07 03:04:10;;;;;;;5.23;2.83;;;;;;;13.21;100.00;96200.09;5012601;28;24565;-76
2023/09/07 03:06:41;;;;;;;3.00;2.80;;;;;;;13.11;100.00;96204.22;5012983;28;24428;-75
2023/09/07 03:09:08;;;;;;;13.88;3.00;;;;;;;13.07;100.00;96203.59;5013430;28;24783;-75
2023/09/07 03:11:35;;;;;;;3.67;3.28;;;;;;;13.11;100.00;96198.19;5013181;28;24435;-76
2023/09/07 03:14:02;;;;;;;5.78;3.45;;;;;;;13.15;100.00;96202.25;5012201;28;24434;-76
2023/09/07 03:16:30;;;;;;;4.85;3.50;;;;;;;13.08;100.00;96202.66;5012417;28;24452;-76
2023/09/07 03:18:56;;;;;;;4.40;3.58;;;;;;;13.05;100.00;96191.63;5012835;28;24978;-76
2023/09/07 03:21:25;;;;;;;4.40;3.33;;;;;;;12.99;100.00;96197.25;5012671;28;24437;-76
2023/09/07 03:23:53;;;;;;;6.68;3.95;;;;;;;12.95;100.00;96190.59;5012864;28;24479;-76
2023/09/07 03:26:20;;;;;;;3.87;3.40;;;;;;;12.96;100.00;96187.88;5013704;28;24528;-75
2023/09/07 03:28:46;;;;;;;5.95;3.33;;;;;;;13.04;100.00;96190.78;5012324;28;24954;-75
2023/09/07 03:31:13;;;;;;;4.17;3.50;;;;;;;13.02;100.00;96186.66;5013246;28;24451;-76
2023/09/07 03:33:39;;;;;;;4.03;3.55;;;;;;;13.00;100.00;96185.91;5012398;28;24455;-76
2023/09/07 03:36:06;;;;;;;3.88;3.30;;;;;;;13.01;100.00;96195.38;5012185;28;24443;-76
2023/09/07 03:38:33;;;;;;;4.53;3.05;;;;;;;13.06;100.00;96193.31;5013536;28;24956;-75
2023/09/07 03:41:00;;;;;;;5.00;3.40;;;;;;;13.11;100.00;96186.03;5012260;28;24429;-76
2023/09/07 03:43:27;;;;;;;4.60;3.58;;;;;;;13.12;100.00;96190.28;5011536;28;24969;-75
2023/09/07 03:45:53;;;;;;;4.03;3.22;;;;;;;13.11;100.00;96193.00;5012124;28;24443;-76
2023/09/07 03:48:20;;;;;;;4.53;3.37;;;;;;;13.12;100.00;96187.69;5012399;28;24980;-76
2023/09/07 03:50:47;;;;;;;7.57;3.42;;;;;;;13.05;100.00;96191.63;5012040;28;24463;-76
2023/09/07 03:53:13;;;;;;;5.20;3.37;;;;;;;13.02;100.00;96186.66;5011380;28;24455;-76
2023/09/07 03:55:43;;;;;;;4.32;3.50;;;;;;;13.04;100.00;96190.78;5011769;28;24423;-76
2023/09/07 03:58:12;;;;;;;4.33;3.03;;;;;;;13.02;100.00;96186.66;5011929;28;24518;-76
2023/09/07 04:00:40;;;;;;;5.32;3.42;;;;;;;12.97;100.00;96188.69;5011634;28;24431;-76
2023/09/07 04:03:07;;;;;;;4.00;3.13;;;;;;;12.99;100.00;96179.03;5011250;28;24425;-75
2023/09/07 04:05:33;;;;;;;4.10;3.20;;;;;;;12.97;100.00;96181.72;5012433;28;24424;-76
2023/09/07 04:08:02;;;;;;;3.78;3.35;;;;;;;12.88;100.00;96178.91;5012444;28;24434;-76
2023/09/07 04:10:29;;;;;;;4.38;3.72;;;;;;;12.79;100.00;96176.00;5012194;28;24513;-76
2023/09/07 04:12:55;;;;;;;4.82;3.22;;;;;;;12.77;100.00;96185.63;5012149;28;24453;-76
2023/09/07 04:15:25;;;;;;;7.43;3.60;;;;;;;12.79;100.00;96178.59;5011526;28;24435;-76
2023/09/07 04:17:52;;;;;;;4.65;3.20;;;;;;;12.87;100.00;96185.03;5012000;28;24515;-75
2023/09/07 04:20:18;;;;;;;4.90;3.20;;;;;;;12.92;100.00;96183.81;5012381;28;24492;-76
2023/09/07 04:22:45;;;;;;;4.18;3.30;;;;;;;12.94;100.00;96184.56;5011846;28;24786;-75
2023/09/07 04:25:11;;;;;;;3.70;3.05;;;;;;;12.94;100.00;96179.34;5011670;28;24420;-76
2023/09/07 04:27:38;;;;;;;5.20;3.15;;;;;;;12.91;100.00;96183.91;5011574;28;24424;-75
2023/09/07 04:30:05;;;;;;;4.85;3.22;;;;;;;12.91;100.00;96181.31;5012565;28;24420;-77
2023/09/07 04:32:33;;;;;;;4.00;3.00;;;;;;;12.89;100.00;96176.19;5010710;28;24452;-76
2023/09/07 04:35:01;;;;;;;3.10;2.70;;;;;;;12.88;100.00;96181.50;5011965;28;24432;-75
2023/09/07 04:37:28;;;;;;;4.25;3.30;;;;;;;12.78;100.00;96176.91;5011513;28;24456;-76
2023/09/07 04:39:54;;;;;;;3.38;2.97;;;;;;;12.79;100.00;96176.00;5011722;28;24432;-76
2023/09/07 04:42:21;;;;;;;3.35;3.00;;;;;;;12.80;100.00;96177.66;5011686;28;24680;-76
2023/09/07 04:44:48;;;;;;;3.35;2.83;;;;;;;12.72;100.00;96172.13;5011702;28;24487;-75
2023/09/07 04:47:15;;;;;;;4.40;3.57;;;;;;;12.66;100.00;96175.09;5011588;28;24990;-76
2023/09/07 04:49:43;;;;;;;5.30;3.47;;;;;;;12.55;100.00;96175.78;5010224;28;24972;-75
2023/09/07 04:52:09;;;;;;;4.63;3.38;;;;;;;12.44;100.00;96178.25;5010786;28;24432;-75
2023/09/07 04:54:36;;;;;;;3.60;3.25;;;;;;;12.44;100.00;96178.25;5013344;28;24427;-76
2023/09/07 04:57:03;;;;;;;4.60;3.38;;;;;;;12.37;100.00;96176.97;5026300;28;24505;-76
2023/09/07 04:59:29;;;;;;;4.32;3.28;;;;;;;12.23;100.00;96180.44;5034361;28;24478;-76
2023/09/07 05:02:00;;;;;;;4.13;3.35;;;;;;;12.30;100.00;96176.50;5035028;28;24976;-76
2023/09/07 05:04:26;;;;;;;5.35;3.50;;;;;;;12.22;100.00;96177.94;5035941;28;24419;-76
2023/09/07 05:06:54;;;;;;;4.07;3.10;;;;;;;12.09;100.00;96172.69;5036174;28;24428;-76
2023/09/07 05:09:20;;;;;;;3.85;3.40;;;;;;;12.13;100.00;96179.34;5036447;28;24436;-75
2023/09/07 05:11:46;;;;;;;4.33;3.80;;;;;;;12.12;100.00;96175.06;5035799;28;24797;-75
2023/09/07 05:14:13;;;;;;;6.13;3.70;;;;;;;12.13;100.00;96176.75;5033819;28;24453;-75
2023/09/07 05:16:43;;;;;;;3.55;3.10;;;;;;;12.15;100.00;96169.69;5033263;28;24937;-76
2023/09/07 05:19:09;;;;;;;5.25;3.53;;;;;;;12.20;100.00;96177.19;5031867;28;24435;-76
2023/09/07 05:21:36;;;;;;;4.38;3.35;;;;;;;12.32;100.00;96176.44;5033148;28;24428;-76
2023/09/07 05:24:04;;;;;;;5.30;3.53;;;;;;;12.47;100.00;96177.22;5032943;28;24408;-76
2023/09/07 05:26:30;;;;;;;7.70;3.40;;;;;;;12.63;100.00;96179.66;5033136;28;24424;-76
2023/09/07 05:28:57;;;;;;;5.68;3.80;;;;;;;12.77;100.00;96188.25;5033197;28;24419;-76
2023/09/07 05:31:23;;;;;;;5.60;3.90;;;;;;;12.84;100.00;96188.69;5032932;28;24991;-75
2023/09/07 05:33:51;;;;;;;6.80;4.05;;;;;;;12.95;100.00;96186.22;5032946;28;24448;-75
2023/09/07 05:36:18;;;;;;;5.60;4.32;;;;;;;13.05;100.00;96191.63;5033121;28;24782;-75
2023/09/07 05:38:44;;;;;;;4.53;3.97;;;;;;;13.20;100.00;96193.25;5032930;28;24420;-75
2023/09/07 05:43:42;;;;;;;8.77;3.85;;;;;;;13.42;100.00;96197.88;5069915;28;24459;-75
2023/09/07 05:46:09;;;;;;;4.82;3.60;;;;;;;13.45;100.00;96204.63;5072735;28;24411;-75
2023/09/07 05:48:35;;;;;;;7.53;4.55;;;;;;;13.55;100.00;96197.84;5072877;28;24414;-75
2023/09/07 05:51:02;;;;;;;6.68;4.45;;;;;;;13.72;100.00;96197.56;5071518;28;26804;-75
2023/09/07 05:53:28;;;;;;;5.55;4.40;;;;;;;13.83;100.00;96199.44;5053377;28;25026;-76
2023/09/07 05:55:55;;;;;;;7.00;3.90;;;;;;;13.95;100.00;96197.75;5052748;28;24450;-75
2023/09/07 05:58:21;;;;;;;6.07;4.00;;;;;;;14.04;100.00;96194.47;5052599;28;24426;-75
2023/09/07 06:00:49;;;;;;;5.65;4.25;;;;;;;14.20;100.00;96199.44;5052531;28;24427;-76
2023/09/07 06:03:16;;;;;;;11.48;5.05;;;;;;;14.34;100.00;96196.69;5046314;28;24440;-75
2023/09/07 06:05:44;;;;;;;17.17;5.43;;;;;;;14.44;100.00;96202.94;5045331;28;24411;-76
2023/09/07 06:08:11;;;;;;;15.50;5.90;;;;;;;14.51;100.00;96206.78;5052163;28;24454;-75
2023/09/07 06:10:38;;;;;;;13.73;5.07;;;;;;;14.57;100.00;96202.91;5052216;28;24419;-76
2023/09/07 06:13:04;;;;;;;9.15;4.85;;;;;;;14.80;100.00;96203.88;5051353;28;24525;-76
2023/09/07 06:15:31;;;;;;;8.60;5.05;;;;;;;14.96;100.00;96203.56;5052291;28;24796;-76
2023/09/07 06:18:00;;;;;;;9.77;5.25;;;;;;;15.06;100.00;96199.34;5052447;28;24426;-76
2023/09/07 06:20:26;;;;;;;7.65;4.00;;;;;;;15.17;100.00;96212.44;5051941;28;24466;-76
2023/09/07 06:22:53;;;;;;;6.40;4.00;;;;;;;15.32;100.00;96200.03;5051639;28;24784;-75
2023/09/07 06:25:21;;;;;;;7.43;4.22;;;;;;;15.50;100.00;96192.59;5052407;28;24411;-77
2023/09/07 06:27:48;;;;;;;5.55;3.70;;;;;;;15.65;100.00;96194.06;5052421;28;24574;-77
2023/09/07 06:30:15;;;;;;;6.50;4.03;;;;;;;15.82;100.00;96205.00;5052448;28;24426;-76
2023/09/07 06:32:42;;;;;;;5.63;3.88;;;;;;;16.01;100.00;96201.78;5055532;28;24430;-77
2023/09/07 06:35:11;;;;;;;6.23;4.27;;;;;;;15.96;100.00;96199.53;5056841;28;24788;-76
2023/09/07 06:37:40;;;;;;;5.05;4.13;;;;;;;16.00;100.00;96200.97;5052263;28;24415;-76
2023/09/07 06:40:09;;;;;;;4.30;3.33;;;;;;;15.86;100.00;96211.63;5052400;28;24426;-76
2023/09/07 06:42:35;;;;;;;10.32;3.78;;;;;;;15.75;100.00;96212.47;5052216;28;24428;-77
2023/09/07 06:45:02;;;;;;;6.70;3.88;;;;;;;15.78;100.00;96208.78;5053555;28;24431;-77
2023/09/07 06:47:29;;;;;;;5.80;3.85;;;;;;;15.82;100.00;96208.44;5054221;28;24972;-76
2023/09/07 06:49:55;;;;;;;4.95;3.60;;;;;;;15.88;100.00;96214.97;5055126;28;24422;-77
2023/09/07 06:52:23;;;;;;;4.20;3.67;;;;;;;15.97;100.00;96214.25;5055727;28;24428;-78
2023/09/07 06:54:52;;;;;;;4.05;3.58;;;;;;;16.06;100.00;96213.56;5057230;28;24447;-77
2023/09/07 06:57:19;;;;;;;5.25;3.60;;;;;;;16.14;100.00;96213.78;5061006;28;24419;-77
2023/09/07 06:59:45;;;;;;;4.63;3.45;;;;;;;16.27;100.00;96212.81;5059323;28;24972;-77
2023/09/07 07:02:12;;;;;;;5.30;3.78;;;;;;;16.33;100.00;96212.34;5056855;28;24428;-75
2023/09/07 07:04:38;;;;;;;5.88;3.45;;;;;;;16.53;100.00;96216.00;5051935;28;24411;-77
2023/09/07 07:07:05;;;;;;;6.97;3.63;;;;;;;16.84;100.00;96211.78;5051634;28;24426;-77
2023/09/07 07:09:34;;;;;;;6.80;3.77;;;;;;;16.95;100.00;96213.56;5051620;28;24434;-75
2023/09/07 07:12:01;;;;;;;3.72;3.33;;;;;;;17.12;100.00;96220.84;5049851;28;24455;-76
2023/09/07 07:14:27;;;;;;;7.40;3.90;;;;;;;17.63;100.00;96217.47;5051561;28;24455;-75
2023/09/07 07:16:54;;;;;;;5.20;3.85;;;;;;;18.10;100.00;96215.28;5052284;28;24415;-75
2023/09/07 07:19:20;;;;;;;4.45;3.50;;;;;;;18.59;100.00;96217.09;5051937;28;24407;-75
2023/09/07 07:21:47;;;;;;;5.13;3.47;;;;;;;18.90;100.00;96216.19;5047459;28;24442;-75
2023/09/07 07:24:14;;;;;;;4.88;3.78;;;;;;;19.25;100.00;96220.91;5046331;28;25188;-75
2023/09/07 07:26:42;;;;;;;9.00;4.18;;;;;;;19.54;100.00;96215.63;5046200;28;24438;-75
2023/09/07 07:29:09;;;;;;;5.43;3.72;;;;;;;19.72;100.00;96211.31;5045665;28;24434;-74
2023/09/07 07:31:36;;;;;;;4.40;4.00;;;;;;;20.04;100.00;96207.50;5045884;28;24494;-75
2023/09/07 07:34:02;;;;;;;10.02;4.15;;;;;;;20.20;100.00;96212.16;5045818;28;24912;-77
2023/09/07 07:36:29;;;;;;;8.45;4.13;;;;;;;20.30;100.00;96207.69;5047845;28;24423;-77
2023/09/07 07:38:55;;;;;;;6.22;4.15;;;;;;;20.56;100.00;96207.03;5046908;28;24976;-75
2023/09/07 07:41:22;;;;;;;4.82;3.63;;;;;;;20.74;100.00;96210.53;5045058;28;24432;-75
2023/09/07 07:43:50;;;;;;;7.70;3.97;;;;;;;20.96;100.00;96204.81;5044690;28;24504;-75
2023/09/07 07:46:16;;;;;;;7.57;3.80;;;;;;;21.15;100.00;96208.28;5045613;28;24980;-74
2023/09/07 07:48:43;;;;;;;6.77;3.50;;;;;;;21.10;100.00;96205.25;5045782;28;24434;-75
2023/09/07 07:51:10;;;;;;;4.93;3.45;;;;;;;21.32;100.00;96212.72;5045184;28;24481;-74
2023/09/07 07:53:37;;;;;;;7.83;3.70;;;;;;;21.54;100.00;96211.44;5045239;28;24462;-74
2023/09/07 07:56:04;;;;;;;6.45;3.58;;;;;;;21.10;100.00;96206.13;5048218;28;24434;-74
2023/09/07 07:58:31;;;;;;;7.90;4.13;;;;;;;20.63;100.00;96205.47;5049673;28;24417;-73
2023/09/07 08:01:01;;;;;;;5.10;3.50;;;;;;;20.92;100.00;96208.75;5050388;28;24781;-73
2023/09/07 08:03:28;;;;;;;6.13;4.60;;;;;;;20.67;100.00;96193.66;5050107;28;24515;-74
2023/09/07 08:05:55;;;;;;;11.43;4.37;;;;;;;20.52;100.00;96204.69;5050673;28;24493;-74
2023/09/07 08:08:22;;;;;;;5.38;4.07;;;;;;;20.73;100.00;96198.34;5049035;28;24485;-75
2023/09/07 08:10:50;;;;;;;6.05;4.03;;;;;;;20.97;100.00;96203.03;5047051;28;24438;-74
2023/09/07 08:13:19;;;;;;;3.72;3.42;;;;;;;21.20;100.00;96195.50;5044833;28;24481;-74
2023/09/07 08:15:47;;;;;;;6.55;3.83;;;;;;;21.49;100.00;96201.34;5044191;28;24481;-76
2023/09/07 08:18:17;;;;;;;5.78;3.75;;;;;;;21.64;100.00;96200.81;5046158;28;24434;-75
2023/09/07 08:20:45;;;;;;;5.20;3.30;;;;;;;22.24;100.00;96195.56;5043406;28;24469;-77
2023/09/07 08:23:13;;;;;;;6.03;3.78;;;;;;;22.52;100.00;96200.66;5047006;28;24534;-75
2023/09/07 08:25:44;;;;;;;4.32;3.40;;;;;;;22.86;100.00;96200.56;5054082;28;24426;-77
2023/09/07 08:28:12;;;;;;;8.50;3.58;;;;;;;23.22;100.00;96198.50;5057020;28;24430;-75
2023/09/07 08:30:39;;;;;;;6.10;3.30;;;;;;;23.41;100.00;96200.00;5057292;28;24971;-77
2023/09/07 08:33:06;;;;;;;12.02;3.35;;;;;;;23.09;100.00;96198.97;5057952;28;24434;-76
2023/09/07 08:35:35;;;;;;;4.20;3.80;;;;;;;23.29;100.00;96193.41;5056731;28;24448;-75
2023/09/07 08:38:05;;;;;;;5.93;3.42;;;;;;;23.59;100.00;96194.53;5056953;28;24419;-76
2023/09/07 08:40:32;;;;;;;5.20;3.42;;;;;;;23.96;100.00;96201.94;5056703;28;24458;-76
2023/09/07 08:43:02;;;;;;;9.32;3.72;;;;;;;24.22;100.00;96196.41;5055603;28;24478;-75
2023/09/07 08:45:31;;;;;;;4.80;3.47;;;;;;;24.07;100.00;96198.94;5056016;28;24395;-75
2023/09/07 08:47:59;;;;;;;4.63;3.50;;;;;;;23.68;100.00;96196.19;5056543;28;24484;-76
2023/09/07 08:50:26;;;;;;;6.10;3.80;;;;;;;24.18;100.00;96195.13;5057472;28;24450;-76
2023/09/07 08:52:54;;;;;;;6.67;3.77;;;;;;;24.22;100.00;96190.31;5056067;28;24437;-74
2023/09/07 08:55:22;;;;;;;7.53;3.70;;;;;;;24.41;100.00;96189.94;5055661;28;24988;-74
2023/09/07 08:57:48;;;;;;;5.03;3.70;;;;;;;24.68;100.00;96196.56;5054315;28;24403;-75
2023/09/07 09:00:16;;;;;;;4.55;3.67;;;;;;;24.72;98.58;96195.22;5054044;28;24426;-75
2023/09/07 09:02:43;;;;;;;5.25;3.60;;;;;;;24.68;100.00;96198.41;5053463;28;24836;-75
2023/09/07 09:05:10;;;;;;;3.35;3.00;;;;;;;24.43;100.00;96198.50;5055197;28;24411;-75
2023/09/07 09:07:37;;;;;;;4.72;3.22;;;;;;;24.96;100.00;96204.06;5050971;28;24415;-75
2023/09/07 09:10:06;;;;;;;5.20;3.10;;;;;;;24.87;95.59;96206.72;5049833;28;24434;-76
2023/09/07 09:12:33;;;;;;;3.47;3.05;;;;;;;25.00;99.20;96202.69;5048307;28;24438;-76
2023/09/07 09:15:00;;;;;;;6.25;3.30;;;;;;;24.84;94.83;96195.66;5049709;28;24526;-76
2023/09/07 09:17:27;;;;;;;6.75;3.83;;;;;;;24.73;94.28;96196.88;5036120;28;24435;-75
2023/09/07 09:19:53;;;;;;;8.98;3.60;;;;;;;25.24;98.84;96191.13;5033140;28;24416;-75
2023/09/07 09:22:20;;;;;;;4.97;3.25;;;;;;;24.90;93.06;96196.78;5033094;28;24428;-75
2023/09/07 09:24:48;;;;;;;4.43;3.30;;;;;;;25.29;90.97;96199.38;5032957;28;24470;-75
2023/09/07 09:27:16;;;;;;;4.97;3.25;;;;;;;25.41;95.18;96191.84;5032139;28;24420;-75
2023/09/07 09:29:44;;;;;;;5.65;3.35;;;;;;;25.53;92.88;96193.03;5032406;28;24418;-75
2023/09/07 09:32:10;;;;;;;5.40;3.65;;;;;;;25.50;89.70;96196.88;5033175;28;24463;-75
2023/09/07 09:34:38;;;;;;;3.73;3.43;;;;;;;25.33;89.93;96196.19;5033491;28;24446;-75
2023/09/07 09:37:05;;;;;;;4.85;3.35;;;;;;;25.68;99.30;96187.78;5032936;28;24984;-75
2023/09/07 09:39:31;;;;;;;3.85;3.42;;;;;;;25.85;91.47;96197.28;5032910;28;24423;-75
2023/09/07 09:41:59;;;;;;;3.40;3.10;;;;;;;25.67;88.73;96192.25;5033112;28;24427;-74
2023/09/07 09:44:29;;;;;;;6.75;4.25;;;;;;;25.87;92.65;96189.94;5053042;28;24514;-75
2023/09/07 09:46:56;;;;;;;3.85;3.42;;;;;;;26.16;95.52;96180.34;5052757;28;25125;-74
2023/09/07 09:49:25;;;;;;;4.78;3.35;;;;;;;25.99;92.83;96182.34;5052780;28;24419;-73
2023/09/07 09:51:52;;;;;;;4.90;3.47;;;;;;;26.12;89.64;96179.06;5052101;28;24442;-73
2023/09/07 09:54:19;;;;;;;4.85;3.25;;;;;;;26.25;94.35;96182.75;5052323;28;24443;-73
2023/09/07 09:56:46;;;;;;;5.18;3.22;;;;;;;26.52;90.33;96177.78;5052605;28;24423;-74
2023/09/07 09:59:13;;;;;;;4.53;3.33;;;;;;;26.76;93.82;96185.41;5052696;28;24967;-74
2023/09/07 10:01:45;;;;;;;4.47;3.25;;;;;;;26.58;86.33;96182.34;5052267;28;24935;-74
2023/09/07 10:04:14;;;;;;;4.95;3.20;;;;;;;26.39;86.25;96185.56;5052209;28;24437;-74
2023/09/07 10:06:50;;;;;;;4.45;3.30;;;;;;;26.66;85.21;96189.38;5052381;28;25063;-74
2023/09/07 10:09:19;;;;;;;5.03;3.42;;;;;;;26.67;94.38;96185.75;5052480;28;24427;-76
2023/09/07 10:11:52;;;;;;;5.53;3.80;;;;;;;26.49;92.50;96180.81;5052516;28;24562;-74
2023/09/07 10:14:19;;;;;;;3.57;3.07;;;;;;;26.38;87.56;96176.75;5052309;28;24450;-75
2023/09/07 10:16:48;;;;;;;3.97;3.15;;;;;;;26.49;91.66;96186.13;5052254;28;24407;-76
2023/09/07 10:19:15;;;;;;;5.37;3.50;;;;;;;26.67;92.01;96185.75;5052276;28;24412;-76
2023/09/07 10:21:42;;;;;;;4.35;3.40;;;;;;;26.79;90.31;96182.41;5051645;28;24994;-76
2023/09/07 10:24:09;;;;;;;6.10;3.55;;;;;;;26.58;85.54;96181.53;5051775;28;24781;-76
2023/09/07 10:26:35;;;;;;;3.33;3.03;;;;;;;26.62;87.29;96180.13;5051724;28;24422;-76
2023/09/07 10:29:05;;;;;;;4.78;3.42;;;;;;;26.84;95.41;96176.50;5052138;28;24510;-77
2023/09/07 10:31:32;;;;;;;4.93;3.30;;;;;;;26.92;92.35;96175.56;5052034;28;24785;-77
2023/09/07 10:34:10;;;;;;;5.07;3.20;;;;;;;27.07;91.28;96170.19;5051719;28;24438;-75
2023/09/07 10:36:38;;;;;;;4.60;3.57;;;;;;;27.01;87.76;96169.13;5051917;28;24465;-76
2023/09/07 10:39:05;;;;;;;4.20;3.35;;;;;;;26.77;90.01;96165.84;5052067;28;24459;-77
2023/09/07 10:41:41;;;;;;;5.47;3.30;;;;;;;26.68;95.83;96164.28;5051859;28;24462;-77
2023/09/07 10:44:08;;;;;;;5.65;3.80;;;;;;;26.90;92.05;96164.31;5052318;28;25127;-77
2023/09/07 10:46:34;;;;;;;5.13;3.78;;;;;;;26.78;94.07;96161.34;5051993;28;24415;-77
2023/09/07 10:49:01;;;;;;;4.70;3.80;;;;;;;26.88;89.94;96163.66;5051908;28;24422;-78
2023/09/07 10:51:29;;;;;;;7.47;3.70;;;;;;;26.84;91.26;96162.41;5051396;28;25033;-78
2023/09/07 10:53:56;;;;;;;6.83;3.93;;;;;;;26.62;94.22;96156.22;5051949;28;24427;-77
2023/09/07 10:56:26;;;;;;;5.97;4.30;;;;;;;26.76;90.40;96150.88;5052052;28;24435;-78
2023/09/07 10:58:55;;;;;;;5.75;3.83;;;;;;;26.85;97.44;96150.78;5051799;28;24410;-78
2023/09/07 11:01:21;;;;;;;6.20;4.07;;;;;;;26.74;97.15;96152.09;5051890;28;24431;-79
2023/09/07 11:03:48;;;;;;;5.10;3.60;;;;;;;26.62;95.09;96149.06;5051720;28;24426;-77
2023/09/07 11:06:19;;;;;;;4.07;3.22;;;;;;;26.62;92.17;96142.94;5051504;28;24980;-77
2023/09/07 11:08:47;;;;;;;4.75;3.67;;;;;;;26.61;94.78;96146.63;5051991;28;24415;-76
2023/09/07 11:11:14;;;;;;;6.40;3.63;;;;;;;26.69;95.16;96144.66;5051942;28;24415;-76
2023/09/07 11:13:41;;;;;;;6.05;3.67;;;;;;;26.92;94.67;96141.88;5051569;28;24434;-76
2023/09/07 11:16:09;;;;;;;4.75;3.55;;;;;;;26.93;97.02;96145.34;5051822;28;24453;-77
2023/09/07 11:18:36;;;;;;;4.93;3.80;;;;;;;26.67;88.60;96141.38;5052034;28;24422;-76
2023/09/07 11:21:04;;;;;;;5.47;3.55;;;;;;;26.59;93.50;96144.16;5052080;28;24834;-75
2023/09/07 11:23:37;;;;;;;5.23;3.87;;;;;;;26.65;94.72;96146.06;5052326;28;24434;-76
2023/09/07 11:26:06;;;;;;;5.05;3.53;;;;;;;26.67;98.54;96143.22;5052642;28;24958;-75
2023/09/07 11:28:33;;;;;;;5.22;3.65;;;;;;;26.69;97.03;96142.00;5051974;28;24431;-76